Wetterdaten: aktuell Samstag, 09.05.2026 23:30
Datum Zeit Temp. A. Feuchte A. Luftdruck Regen Wind Richtung Richtung Sonnenschein Solar Windböen
09.05.2026 23:30 9,9 °C 78 % 1019,9 hPa 0,0 l/m² 4,3 km/h (1 Bft) SO 142 ° 0 min 0 W/m² 11,3 km/h (2 Bft)
09.05.2026 22:30 8,1 °C 82 % 1020,3 hPa 0,0 l/m² 0,1 km/h (0 Bft) O 101 ° 0 min 0 W/m² 3,2 km/h (1 Bft)
09.05.2026 21:30 8,6 °C 82 % 1020,5 hPa 0,0 l/m² 0,0 km/h (0 Bft) O-SO 111 ° 0 min 0 W/m² 0,0 km/h (0 Bft)
09.05.2026 20:30 9,8 °C 79 % 1020,3 hPa 0,0 l/m² 0,0 km/h (0 Bft) O-SO 112 ° 0 min 0 W/m² 0,0 km/h (0 Bft)
09.05.2026 19:30 12,2 °C 71 % 1020,1 hPa 0,0 l/m² 3,3 km/h (1 Bft) O 101 ° 0 min 8 W/m² 9,7 km/h (2 Bft)
09.05.2026 18:30 13,4 °C 67 % 1020,4 hPa 0,0 l/m² 5,2 km/h (1 Bft) O-SO 104 ° 0 min 46 W/m² 14,5 km/h (3 Bft)
09.05.2026 17:30 13,9 °C 66 % 1020,6 hPa 0,0 l/m² 6,0 km/h (2 Bft) O 86 ° 15 min 93 W/m² 12,9 km/h (3 Bft)
09.05.2026 16:30 14,0 °C 63 % 1021,0 hPa 0,0 l/m² 6,8 km/h (2 Bft) NO 55 ° 45 min 271 W/m² 17,7 km/h (3 Bft)
09.05.2026 15:30 13,7 °C 63 % 1021,3 hPa 0,0 l/m² 6,4 km/h (2 Bft) NO 48 ° 0 min 257 W/m² 17,7 km/h (3 Bft)
09.05.2026 14:30 13,7 °C 61 % 1021,7 hPa 0,0 l/m² 6,6 km/h (2 Bft) SO 130 ° 15 min 371 W/m² 16,1 km/h (3 Bft)
09.05.2026 13:30 13,1 °C 64 % 1022,1 hPa 0,0 l/m² 5,3 km/h (1 Bft) SO 146 ° 0 min 256 W/m² 12,9 km/h (3 Bft)
09.05.2026 12:30 12,9 °C 65 % 1022,4 hPa 0,0 l/m² 5,2 km/h (1 Bft) N-NO 28 ° 15 min 533 W/m² 16,1 km/h (3 Bft)
09.05.2026 11:30 12,0 °C 67 % 1022,7 hPa 0,0 l/m² 2,6 km/h (1 Bft) NW 318 ° 0 min 171 W/m² 9,7 km/h (2 Bft)
09.05.2026 10:30 12,0 °C 67 % 1022,7 hPa 0,0 l/m² 4,3 km/h (1 Bft) O-SO 122 ° 0 min 265 W/m² 12,9 km/h (3 Bft)
09.05.2026 09:30 11,5 °C 67 % 1022,7 hPa 0,0 l/m² 4,2 km/h (1 Bft) N-NO 32 ° 15 min 281 W/m² 9,7 km/h (2 Bft)
09.05.2026 08:30 11,8 °C 68 % 1022,5 hPa 0,0 l/m² 5,3 km/h (1 Bft) O-SO 105 ° 60 min 483 W/m² 14,5 km/h (3 Bft)
09.05.2026 07:30 10,1 °C 83 % 1022,6 hPa 0,0 l/m² 5,2 km/h (1 Bft) O-NO 78 ° 15 min 278 W/m² 12,9 km/h (3 Bft)
09.05.2026 06:30 8,8 °C 87 % 1022,5 hPa 0,0 l/m² 0,0 km/h (0 Bft) N 360 ° 0 min 65 W/m² 0,0 km/h (0 Bft)
09.05.2026 05:30 8,2 °C 90 % 1022,2 hPa 0,0 l/m² 1,1 km/h (1 Bft) N-NW 343 ° 0 min 22 W/m² 8,0 km/h (2 Bft)
09.05.2026 04:30 8,3 °C 90 % 1022,0 hPa 0,0 l/m² 0,0 km/h (0 Bft) NO 34 ° 0 min 0 W/m² 0,0 km/h (0 Bft)
09.05.2026 03:30 8,2 °C 90 % 1022,1 hPa 0,0 l/m² 0,0 km/h (0 Bft) NO 34 ° 0 min 0 W/m² 0,0 km/h (0 Bft)
09.05.2026 02:30 8,3 °C 90 % 1022,0 hPa 0,0 l/m² 0,0 km/h (0 Bft) NO 34 ° 0 min 0 W/m² 0,0 km/h (0 Bft)
09.05.2026 01:30 8,4 °C 91 % 1022,0 hPa 0,0 l/m² 0,0 km/h (0 Bft) NO 34 ° 0 min 0 W/m² 0,0 km/h (0 Bft)
09.05.2026 00:30 8,5 °C 90 % 1022,1 hPa 0,0 l/m² 0,1 km/h (0 Bft) NO 34 ° 0 min 0 W/m² 1,6 km/h (1 Bft)
09.05.2026 00:00 8,6 °C 90 % 1022,3 hPa 0,0 l/m² 0,0 km/h (0 Bft) NO 34 ° 0 min 0 W/m² 0,0 km/h (0 Bft)
_ Min-Zeit 22:45 14:30 23:30 - 00:00 - - - - 00:00
Minimum _ 7,9 °C 61 % 1019,9 hPa - 0,0 km/h (0 Bft) - - - - 0,0 km/h (0 Bft)
_ Max-Zeit 16:15 00:45 11:00 00:00 17:15 - - 07:30 12:30 16:15
Maximum _ 14,3 °C 91 % 1022,8 hPa 0,0 l/m² 7,6 km/h
O (2 Bft)
- - 15 min 533 W/m² 20,9 km/h
O (4 Bft)
Durchschnitt _ 10,8 °C 76 % 1021,6 hPa #0,0 l/m² 2,9 km/h (1 Bft) NO - #3:00 h 134 W/m² 8,2 km/h (2 Bft)